sensor_id;sensor_type;location;lat;lon;timestamp;temperature;humidity
820;DHT22;392;48.838;2.322;2023-02-26T00:01:00;5.10;24.50
820;DHT22;392;48.838;2.322;2023-02-26T00:03:28;5.10;24.80
820;DHT22;392;48.838;2.322;2023-02-26T00:05:58;5.10;24.60
820;DHT22;392;48.838;2.322;2023-02-26T00:08:26;5.00;24.30
820;DHT22;392;48.838;2.322;2023-02-26T00:10:56;5.00;24.60
820;DHT22;392;48.838;2.322;2023-02-26T00:13:27;5.10;24.40
820;DHT22;392;48.838;2.322;2023-02-26T00:15:58;5.10;24.30
820;DHT22;392;48.838;2.322;2023-02-26T00:18:28;5.00;24.20
820;DHT22;392;48.838;2.322;2023-02-26T00:20:56;5.00;24.50
820;DHT22;392;48.838;2.322;2023-02-26T00:23:24;4.90;24.50
820;DHT22;392;48.838;2.322;2023-02-26T00:25:52;4.80;24.50
820;DHT22;392;48.838;2.322;2023-02-26T00:28:19;4.80;24.70
820;DHT22;392;48.838;2.322;2023-02-26T00:30:47;4.80;24.70
820;DHT22;392;48.838;2.322;2023-02-26T00:33:17;4.80;24.70
820;DHT22;392;48.838;2.322;2023-02-26T00:35:45;4.80;24.30
820;DHT22;392;48.838;2.322;2023-02-26T00:38:16;4.80;24.40
820;DHT22;392;48.838;2.322;2023-02-26T00:40:45;4.80;24.50
820;DHT22;392;48.838;2.322;2023-02-26T00:43:15;4.80;24.40
820;DHT22;392;48.838;2.322;2023-02-26T00:45:52;4.70;24.30
820;DHT22;392;48.838;2.322;2023-02-26T00:48:33;4.70;24.50
820;DHT22;392;48.838;2.322;2023-02-26T00:51:12;4.60;24.30
820;DHT22;392;48.838;2.322;2023-02-26T00:53:49;4.60;24.60
820;DHT22;392;48.838;2.322;2023-02-26T00:56:19;4.50;25.00
820;DHT22;392;48.838;2.322;2023-02-26T00:58:46;4.50;24.30
820;DHT22;392;48.838;2.322;2023-02-26T01:01:14;4.50;24.20
820;DHT22;392;48.838;2.322;2023-02-26T01:03:43;4.60;24.00
820;DHT22;392;48.838;2.322;2023-02-26T01:06:12;4.60;24.00
820;DHT22;392;48.838;2.322;2023-02-26T01:08:48;4.50;23.70
820;DHT22;392;48.838;2.322;2023-02-26T01:11:19;4.40;23.90
820;DHT22;392;48.838;2.322;2023-02-26T01:13:47;4.40;24.00
820;DHT22;392;48.838;2.322;2023-02-26T01:16:21;4.40;24.10
820;DHT22;392;48.838;2.322;2023-02-26T01:18:57;4.40;23.70
820;DHT22;392;48.838;2.322;2023-02-26T01:21:32;4.40;23.80
820;DHT22;392;48.838;2.322;2023-02-26T01:24:05;4.30;23.90
820;DHT22;392;48.838;2.322;2023-02-26T01:26:33;4.30;23.90
820;DHT22;392;48.838;2.322;2023-02-26T01:29:01;4.30;23.90
820;DHT22;392;48.838;2.322;2023-02-26T01:31:37;4.30;24.00
820;DHT22;392;48.838;2.322;2023-02-26T01:34:14;4.20;23.90
820;DHT22;392;48.838;2.322;2023-02-26T01:36:49;4.20;24.00
820;DHT22;392;48.838;2.322;2023-02-26T01:39:25;4.10;24.20
820;DHT22;392;48.838;2.322;2023-02-26T01:41:59;4.20;24.20
820;DHT22;392;48.838;2.322;2023-02-26T01:44:35;4.20;23.80
820;DHT22;392;48.838;2.322;2023-02-26T01:47:15;4.20;23.90
820;DHT22;392;48.838;2.322;2023-02-26T01:49:46;4.20;24.30
820;DHT22;392;48.838;2.322;2023-02-26T01:55:49;4.10;24.00
820;DHT22;392;48.838;2.322;2023-02-26T01:58:18;4.00;23.90
820;DHT22;392;48.838;2.322;2023-02-26T02:00:47;4.00;24.00
820;DHT22;392;48.838;2.322;2023-02-26T02:03:15;3.90;24.20
820;DHT22;392;48.838;2.322;2023-02-26T02:05:46;3.90;24.30
820;DHT22;392;48.838;2.322;2023-02-26T02:08:18;4.00;23.90
820;DHT22;392;48.838;2.322;2023-02-26T02:10:47;4.10;23.70
820;DHT22;392;48.838;2.322;2023-02-26T02:13:30;4.10;23.40
820;DHT22;392;48.838;2.322;2023-02-26T02:16:11;4.00;23.60
820;DHT22;392;48.838;2.322;2023-02-26T02:18:51;4.00;23.60
820;DHT22;392;48.838;2.322;2023-02-26T02:21:40;3.90;23.40
820;DHT22;392;48.838;2.322;2023-02-26T02:24:17;3.80;23.70
820;DHT22;392;48.838;2.322;2023-02-26T02:26:57;3.90;23.70
820;DHT22;392;48.838;2.322;2023-02-26T02:29:48;3.90;23.60
820;DHT22;392;48.838;2.322;2023-02-26T02:32:24;3.90;23.40
820;DHT22;392;48.838;2.322;2023-02-26T02:34:59;3.80;23.80
820;DHT22;392;48.838;2.322;2023-02-26T02:37:36;3.80;23.30
820;DHT22;392;48.838;2.322;2023-02-26T02:40:09;3.80;23.50
820;DHT22;392;48.838;2.322;2023-02-26T02:42:43;3.70;23.50
820;DHT22;392;48.838;2.322;2023-02-26T02:45:18;3.70;23.40
820;DHT22;392;48.838;2.322;2023-02-26T02:47:53;3.70;23.50
820;DHT22;392;48.838;2.322;2023-02-26T02:50:26;3.60;23.70
820;DHT22;392;48.838;2.322;2023-02-26T02:52:59;3.60;23.80
820;DHT22;392;48.838;2.322;2023-02-26T02:55:31;3.70;23.70
820;DHT22;392;48.838;2.322;2023-02-26T02:58:03;3.60;23.50
820;DHT22;392;48.838;2.322;2023-02-26T03:00:38;3.50;23.80
820;DHT22;392;48.838;2.322;2023-02-26T03:03:15;3.50;24.00
820;DHT22;392;48.838;2.322;2023-02-26T03:05:45;3.50;23.90
820;DHT22;392;48.838;2.322;2023-02-26T03:08:16;3.50;23.70
820;DHT22;392;48.838;2.322;2023-02-26T03:10:45;3.50;23.60
820;DHT22;392;48.838;2.322;2023-02-26T03:13:15;3.50;23.70
820;DHT22;392;48.838;2.322;2023-02-26T03:15:52;3.50;23.80
820;DHT22;392;48.838;2.322;2023-02-26T03:18:59;3.40;23.80
820;DHT22;392;48.838;2.322;2023-02-26T03:21:33;3.40;24.40
820;DHT22;392;48.838;2.322;2023-02-26T03:24:07;3.40;24.00
820;DHT22;392;48.838;2.322;2023-02-26T03:26:41;3.40;24.00
820;DHT22;392;48.838;2.322;2023-02-26T03:29:17;3.40;24.10
820;DHT22;392;48.838;2.322;2023-02-26T03:31:54;3.30;24.10
820;DHT22;392;48.838;2.322;2023-02-26T03:34:28;3.40;24.70
820;DHT22;392;48.838;2.322;2023-02-26T03:37:02;3.40;24.10
820;DHT22;392;48.838;2.322;2023-02-26T03:39:36;3.40;23.90
820;DHT22;392;48.838;2.322;2023-02-26T03:42:10;3.40;24.00
820;DHT22;392;48.838;2.322;2023-02-26T03:44:52;3.40;24.20
820;DHT22;392;48.838;2.322;2023-02-26T03:47:22;3.30;24.30
820;DHT22;392;48.838;2.322;2023-02-26T03:49:57;3.30;24.30
820;DHT22;392;48.838;2.322;2023-02-26T03:52:29;3.40;24.40
820;DHT22;392;48.838;2.322;2023-02-26T03:55:31;3.30;24.30
820;DHT22;392;48.838;2.322;2023-02-26T03:58:15;3.30;24.90
820;DHT22;392;48.838;2.322;2023-02-26T04:01:10;3.30;24.40
820;DHT22;392;48.838;2.322;2023-02-26T04:03:44;3.20;25.30
820;DHT22;392;48.838;2.322;2023-02-26T04:06:15;3.20;25.20
820;DHT22;392;48.838;2.322;2023-02-26T04:08:45;3.20;24.70
820;DHT22;392;48.838;2.322;2023-02-26T04:11:15;3.20;24.70
820;DHT22;392;48.838;2.322;2023-02-26T04:13:45;3.10;24.90
820;DHT22;392;48.838;2.322;2023-02-26T04:16:14;3.10;24.90
820;DHT22;392;48.838;2.322;2023-02-26T04:18:41;3.10;24.90
820;DHT22;392;48.838;2.322;2023-02-26T04:21:10;3.10;24.80
820;DHT22;392;48.838;2.322;2023-02-26T04:23:40;3.20;24.90
820;DHT22;392;48.838;2.322;2023-02-26T04:26:08;3.30;24.70
820;DHT22;392;48.838;2.322;2023-02-26T04:28:38;3.20;24.50
820;DHT22;392;48.838;2.322;2023-02-26T04:31:07;3.20;24.80
820;DHT22;392;48.838;2.322;2023-02-26T04:33:35;3.10;25.00
820;DHT22;392;48.838;2.322;2023-02-26T04:36:02;3.10;25.10
820;DHT22;392;48.838;2.322;2023-02-26T04:38:30;3.00;25.30
820;DHT22;392;48.838;2.322;2023-02-26T04:40:59;3.00;25.10
820;DHT22;392;48.838;2.322;2023-02-26T04:43:28;3.00;25.20
820;DHT22;392;48.838;2.322;2023-02-26T04:46:21;3.00;25.30
820;DHT22;392;48.838;2.322;2023-02-26T04:48:48;3.00;25.30
820;DHT22;392;48.838;2.322;2023-02-26T04:51:16;3.00;25.30
820;DHT22;392;48.838;2.322;2023-02-26T04:53:43;3.00;25.30
820;DHT22;392;48.838;2.322;2023-02-26T04:56:13;3.00;25.30
820;DHT22;392;48.838;2.322;2023-02-26T04:58:41;3.10;25.00
820;DHT22;392;48.838;2.322;2023-02-26T05:01:14;3.10;25.40
820;DHT22;392;48.838;2.322;2023-02-26T05:03:41;3.10;25.20
820;DHT22;392;48.838;2.322;2023-02-26T05:06:09;3.10;25.10
820;DHT22;392;48.838;2.322;2023-02-26T05:08:36;3.10;25.10
820;DHT22;392;48.838;2.322;2023-02-26T05:11:07;3.10;25.40
820;DHT22;392;48.838;2.322;2023-02-26T05:13:36;3.10;25.40
820;DHT22;392;48.838;2.322;2023-02-26T05:16:05;3.10;25.40
820;DHT22;392;48.838;2.322;2023-02-26T05:18:33;3.10;25.40
820;DHT22;392;48.838;2.322;2023-02-26T05:21:01;3.10;25.40
820;DHT22;392;48.838;2.322;2023-02-26T05:23:28;3.10;25.40
820;DHT22;392;48.838;2.322;2023-02-26T05:25:56;3.10;25.40
820;DHT22;392;48.838;2.322;2023-02-26T05:28:24;3.20;25.40
820;DHT22;392;48.838;2.322;2023-02-26T05:30:55;3.20;25.40
820;DHT22;392;48.838;2.322;2023-02-26T05:33:23;3.10;25.40
820;DHT22;392;48.838;2.322;2023-02-26T05:35:51;3.10;25.40
820;DHT22;392;48.838;2.322;2023-02-26T05:38:18;3.10;25.40
820;DHT22;392;48.838;2.322;2023-02-26T05:40:46;3.10;25.40
820;DHT22;392;48.838;2.322;2023-02-26T05:43:13;3.10;25.40
820;DHT22;392;48.838;2.322;2023-02-26T05:45:41;3.00;25.30
820;DHT22;392;48.838;2.322;2023-02-26T05:48:09;3.00;25.80
820;DHT22;392;48.838;2.322;2023-02-26T05:50:38;3.00;25.30
820;DHT22;392;48.838;2.322;2023-02-26T05:53:05;3.00;25.40
820;DHT22;392;48.838;2.322;2023-02-26T05:55:32;3.00;25.60
820;DHT22;392;48.838;2.322;2023-02-26T05:58:01;3.00;25.80
820;DHT22;392;48.838;2.322;2023-02-26T06:00:28;3.00;25.90
820;DHT22;392;48.838;2.322;2023-02-26T06:02:56;3.10;25.70
820;DHT22;392;48.838;2.322;2023-02-26T06:05:24;3.10;25.80
820;DHT22;392;48.838;2.322;2023-02-26T06:07:52;3.00;25.90
820;DHT22;392;48.838;2.322;2023-02-26T06:10:19;3.00;25.90
820;DHT22;392;48.838;2.322;2023-02-26T06:12:47;3.00;26.50
820;DHT22;392;48.838;2.322;2023-02-26T06:15:14;3.00;26.10
820;DHT22;392;48.838;2.322;2023-02-26T06:17:42;3.10;26.20
820;DHT22;392;48.838;2.322;2023-02-26T06:20:10;3.10;26.30
820;DHT22;392;48.838;2.322;2023-02-26T06:22:40;3.10;26.10
820;DHT22;392;48.838;2.322;2023-02-26T06:25:08;3.10;26.10
820;DHT22;392;48.838;2.322;2023-02-26T06:27:35;3.10;26.40
820;DHT22;392;48.838;2.322;2023-02-26T06:30:04;3.00;26.50
820;DHT22;392;48.838;2.322;2023-02-26T06:32:32;3.00;26.40
820;DHT22;392;48.838;2.322;2023-02-26T06:34:59;3.00;26.60
820;DHT22;392;48.838;2.322;2023-02-26T06:37:27;2.90;27.30
820;DHT22;392;48.838;2.322;2023-02-26T06:39:56;2.90;26.90
820;DHT22;392;48.838;2.322;2023-02-26T06:42:23;3.00;26.90
820;DHT22;392;48.838;2.322;2023-02-26T06:44:51;3.00;26.90
820;DHT22;392;48.838;2.322;2023-02-26T06:47:18;3.00;27.30
820;DHT22;392;48.838;2.322;2023-02-26T06:49:45;3.00;26.90
820;DHT22;392;48.838;2.322;2023-02-26T06:52:13;3.00;27.10
820;DHT22;392;48.838;2.322;2023-02-26T06:54:41;3.00;27.60
820;DHT22;392;48.838;2.322;2023-02-26T06:57:10;2.90;27.80
820;DHT22;392;48.838;2.322;2023-02-26T06:59:37;2.90;27.50
820;DHT22;392;48.838;2.322;2023-02-26T07:02:05;2.90;27.50
820;DHT22;392;48.838;2.322;2023-02-26T07:04:32;2.90;27.70
820;DHT22;392;48.838;2.322;2023-02-26T07:07:00;2.90;27.60
820;DHT22;392;48.838;2.322;2023-02-26T07:09:27;2.90;27.80
820;DHT22;392;48.838;2.322;2023-02-26T07:11:54;3.00;28.00
820;DHT22;392;48.838;2.322;2023-02-26T07:14:23;3.10;27.90
820;DHT22;392;48.838;2.322;2023-02-26T07:16:50;3.20;27.60
820;DHT22;392;48.838;2.322;2023-02-26T07:19:17;3.30;27.70
820;DHT22;392;48.838;2.322;2023-02-26T07:21:45;3.20;27.40
820;DHT22;392;48.838;2.322;2023-02-26T07:24:13;3.30;27.60
820;DHT22;392;48.838;2.322;2023-02-26T07:26:41;3.20;27.40
820;DHT22;392;48.838;2.322;2023-02-26T07:29:08;3.10;27.80
820;DHT22;392;48.838;2.322;2023-02-26T07:31:37;3.20;27.80
820;DHT22;392;48.838;2.322;2023-02-26T07:34:04;3.20;27.60
820;DHT22;392;48.838;2.322;2023-02-26T07:36:32;3.20;27.70
820;DHT22;392;48.838;2.322;2023-02-26T07:38:59;3.20;28.30
820;DHT22;392;48.838;2.322;2023-02-26T07:41:26;3.20;27.80
820;DHT22;392;48.838;2.322;2023-02-26T07:43:54;3.20;28.10
820;DHT22;392;48.838;2.322;2023-02-26T07:46:21;3.30;28.20
820;DHT22;392;48.838;2.322;2023-02-26T07:48:50;3.30;27.70
820;DHT22;392;48.838;2.322;2023-02-26T07:51:17;3.30;27.80
820;DHT22;392;48.838;2.322;2023-02-26T07:53:44;3.30;28.40
820;DHT22;392;48.838;2.322;2023-02-26T07:56:12;3.30;27.80
820;DHT22;392;48.838;2.322;2023-02-26T07:58:39;3.30;28.30
820;DHT22;392;48.838;2.322;2023-02-26T08:01:06;3.40;27.60
820;DHT22;392;48.838;2.322;2023-02-26T08:03:34;3.40;27.50
820;DHT22;392;48.838;2.322;2023-02-26T08:06:03;3.40;27.60
820;DHT22;392;48.838;2.322;2023-02-26T08:08:32;3.40;27.50
820;DHT22;392;48.838;2.322;2023-02-26T08:10:59;3.30;27.40
820;DHT22;392;48.838;2.322;2023-02-26T08:13:27;3.30;28.20
820;DHT22;392;48.838;2.322;2023-02-26T08:15:54;3.40;27.60
820;DHT22;392;48.838;2.322;2023-02-26T08:18:21;3.40;27.60
820;DHT22;392;48.838;2.322;2023-02-26T08:20:50;3.50;27.60
820;DHT22;392;48.838;2.322;2023-02-26T08:23:19;3.50;27.50
820;DHT22;392;48.838;2.322;2023-02-26T08:25:46;3.50;27.30
820;DHT22;392;48.838;2.322;2023-02-26T08:28:14;3.50;27.70
820;DHT22;392;48.838;2.322;2023-02-26T08:30:41;3.50;28.00
820;DHT22;392;48.838;2.322;2023-02-26T08:33:08;3.50;27.70
820;DHT22;392;48.838;2.322;2023-02-26T08:35:36;3.50;27.60
820;DHT22;392;48.838;2.322;2023-02-26T08:38:03;3.50;27.50
820;DHT22;392;48.838;2.322;2023-02-26T08:40:32;3.50;28.10
820;DHT22;392;48.838;2.322;2023-02-26T08:42:59;3.60;27.40
820;DHT22;392;48.838;2.322;2023-02-26T08:45:29;3.60;27.40
820;DHT22;392;48.838;2.322;2023-02-26T08:47:56;3.60;27.10
820;DHT22;392;48.838;2.322;2023-02-26T08:50:24;3.50;27.20
820;DHT22;392;48.838;2.322;2023-02-26T08:52:52;3.50;27.20
820;DHT22;392;48.838;2.322;2023-02-26T08:55:19;3.60;27.20
820;DHT22;392;48.838;2.322;2023-02-26T08:57:48;3.70;26.30
820;DHT22;392;48.838;2.322;2023-02-26T09:00:16;3.70;25.80
820;DHT22;392;48.838;2.322;2023-02-26T09:02:44;3.70;25.80
820;DHT22;392;48.838;2.322;2023-02-26T09:05:12;3.70;25.00
820;DHT22;392;48.838;2.322;2023-02-26T09:07:39;3.70;25.80
820;DHT22;392;48.838;2.322;2023-02-26T09:10:08;3.70;24.50
820;DHT22;392;48.838;2.322;2023-02-26T09:12:37;3.70;24.20
820;DHT22;392;48.838;2.322;2023-02-26T09:15:08;3.70;23.90
820;DHT22;392;48.838;2.322;2023-02-26T09:17:37;3.80;23.30
820;DHT22;392;48.838;2.322;2023-02-26T09:20:05;3.70;22.80
820;DHT22;392;48.838;2.322;2023-02-26T09:22:33;3.70;23.00
820;DHT22;392;48.838;2.322;2023-02-26T09:25:01;3.80;22.80
820;DHT22;392;48.838;2.322;2023-02-26T09:27:29;3.90;22.10
820;DHT22;392;48.838;2.322;2023-02-26T09:29:56;4.00;21.40
820;DHT22;392;48.838;2.322;2023-02-26T09:32:25;4.10;21.20
820;DHT22;392;48.838;2.322;2023-02-26T09:34:53;4.00;20.00
820;DHT22;392;48.838;2.322;2023-02-26T09:37:20;4.10;20.70
820;DHT22;392;48.838;2.322;2023-02-26T09:39:47;4.10;19.30
820;DHT22;392;48.838;2.322;2023-02-26T09:42:25;4.00;19.60
820;DHT22;392;48.838;2.322;2023-02-26T09:44:57;4.00;18.90
820;DHT22;392;48.838;2.322;2023-02-26T09:47:30;3.90;18.90
820;DHT22;392;48.838;2.322;2023-02-26T09:50:10;4.00;18.50
820;DHT22;392;48.838;2.322;2023-02-26T09:52:45;4.10;17.80
820;DHT22;392;48.838;2.322;2023-02-26T09:55:21;4.20;17.40
820;DHT22;392;48.838;2.322;2023-02-26T09:57:57;4.30;16.60
820;DHT22;392;48.838;2.322;2023-02-26T10:00:31;4.30;17.20
820;DHT22;392;48.838;2.322;2023-02-26T10:03:12;4.30;16.90
820;DHT22;392;48.838;2.322;2023-02-26T10:05:52;4.30;16.70
820;DHT22;392;48.838;2.322;2023-02-26T10:08:49;4.30;16.60
820;DHT22;392;48.838;2.322;2023-02-26T10:11:29;4.20;16.90
820;DHT22;392;48.838;2.322;2023-02-26T10:14:02;4.10;17.00
820;DHT22;392;48.838;2.322;2023-02-26T10:16:36;4.00;16.70
820;DHT22;392;48.838;2.322;2023-02-26T10:19:09;3.90;16.60
820;DHT22;392;48.838;2.322;2023-02-26T10:21:43;3.90;16.30
820;DHT22;392;48.838;2.322;2023-02-26T10:24:18;3.90;15.60
820;DHT22;392;48.838;2.322;2023-02-26T10:26:52;4.00;15.30
820;DHT22;392;48.838;2.322;2023-02-26T10:29:26;4.00;15.40
820;DHT22;392;48.838;2.322;2023-02-26T10:32:05;4.00;15.30
820;DHT22;392;48.838;2.322;2023-02-26T10:34:48;4.00;15.10
820;DHT22;392;48.838;2.322;2023-02-26T10:37:19;4.00;14.10
820;DHT22;392;48.838;2.322;2023-02-26T10:39:54;4.00;14.50
820;DHT22;392;48.838;2.322;2023-02-26T10:42:26;4.00;13.70
820;DHT22;392;48.838;2.322;2023-02-26T10:45:09;4.00;13.20
820;DHT22;392;48.838;2.322;2023-02-26T10:48:00;4.10;13.00
820;DHT22;392;48.838;2.322;2023-02-26T10:50:47;4.10;12.90
820;DHT22;392;48.838;2.322;2023-02-26T10:53:18;4.10;13.00
820;DHT22;392;48.838;2.322;2023-02-26T10:55:48;4.20;12.50
820;DHT22;392;48.838;2.322;2023-02-26T10:58:21;4.30;12.20
820;DHT22;392;48.838;2.322;2023-02-26T11:00:52;4.30;11.90
820;DHT22;392;48.838;2.322;2023-02-26T11:03:29;4.40;12.00
820;DHT22;392;48.838;2.322;2023-02-26T11:06:01;4.50;11.50
820;DHT22;392;48.838;2.322;2023-02-26T11:08:32;4.70;10.50
820;DHT22;392;48.838;2.322;2023-02-26T11:11:03;4.90;10.20
820;DHT22;392;48.838;2.322;2023-02-26T11:13:32;4.90;10.20
820;DHT22;392;48.838;2.322;2023-02-26T11:16:04;5.00;10.20
820;DHT22;392;48.838;2.322;2023-02-26T11:18:37;5.00;10.40
820;DHT22;392;48.838;2.322;2023-02-26T11:21:18;5.00;10.20
820;DHT22;392;48.838;2.322;2023-02-26T11:23:49;5.00;9.90
820;DHT22;392;48.838;2.322;2023-02-26T11:26:25;5.10;10.10
820;DHT22;392;48.838;2.322;2023-02-26T11:28:54;5.10;9.70
820;DHT22;392;48.838;2.322;2023-02-26T11:31:23;5.10;9.20
820;DHT22;392;48.838;2.322;2023-02-26T11:33:51;5.10;9.80
820;DHT22;392;48.838;2.322;2023-02-26T11:36:23;5.10;9.50
820;DHT22;392;48.838;2.322;2023-02-26T11:38:54;5.00;9.50
820;DHT22;392;48.838;2.322;2023-02-26T11:41:24;5.00;9.40
820;DHT22;392;48.838;2.322;2023-02-26T11:43:59;4.90;9.90
820;DHT22;392;48.838;2.322;2023-02-26T11:46:28;4.90;9.90
820;DHT22;392;48.838;2.322;2023-02-26T11:48:58;4.90;10.00
820;DHT22;392;48.838;2.322;2023-02-26T11:51:28;5.00;9.40
820;DHT22;392;48.838;2.322;2023-02-26T11:53:57;5.00;9.90
820;DHT22;392;48.838;2.322;2023-02-26T11:56:29;5.10;10.30
820;DHT22;392;48.838;2.322;2023-02-26T11:59:04;5.40;10.50
820;DHT22;392;48.838;2.322;2023-02-26T12:01:35;5.70;9.50
820;DHT22;392;48.838;2.322;2023-02-26T12:04:03;6.00;8.90
820;DHT22;392;48.838;2.322;2023-02-26T12:06:31;6.30;8.40
820;DHT22;392;48.838;2.322;2023-02-26T12:08:59;6.70;8.40
820;DHT22;392;48.838;2.322;2023-02-26T12:11:44;6.80;7.10
820;DHT22;392;48.838;2.322;2023-02-26T12:14:33;6.70;7.60
820;DHT22;392;48.838;2.322;2023-02-26T12:17:18;7.00;7.30
820;DHT22;392;48.838;2.322;2023-02-26T12:19:56;7.00;7.00
820;DHT22;392;48.838;2.322;2023-02-26T12:22:48;7.40;7.10
820;DHT22;392;48.838;2.322;2023-02-26T12:28:58;9.30;3.50
820;DHT22;392;48.838;2.322;2023-02-26T12:32:06;9.60;3.50
820;DHT22;392;48.838;2.322;2023-02-26T12:38:07;9.40;4.20
820;DHT22;392;48.838;2.322;2023-02-26T12:44:22;10.00;3.20
820;DHT22;392;48.838;2.322;2023-02-26T12:47:18;9.10;4.30
820;DHT22;392;48.838;2.322;2023-02-26T12:50:24;8.50;5.20
820;DHT22;392;48.838;2.322;2023-02-26T12:53:20;8.10;3.30
820;DHT22;392;48.838;2.322;2023-02-26T12:56:15;7.40;3.30
820;DHT22;392;48.838;2.322;2023-02-26T12:59:08;7.00;4.10
820;DHT22;392;48.838;2.322;2023-02-26T13:02:07;8.00;3.60
820;DHT22;392;48.838;2.322;2023-02-26T13:05:06;9.40;3.80
820;DHT22;392;48.838;2.322;2023-02-26T13:07:51;9.60;3.50
820;DHT22;392;48.838;2.322;2023-02-26T13:10:32;9.60;3.60
820;DHT22;392;48.838;2.322;2023-02-26T13:13:28;9.10;3.50
820;DHT22;392;48.838;2.322;2023-02-26T13:16:09;8.40;4.30
820;DHT22;392;48.838;2.322;2023-02-26T13:18:48;8.00;4.60
820;DHT22;392;48.838;2.322;2023-02-26T13:21:24;7.90;4.80
820;DHT22;392;48.838;2.322;2023-02-26T13:23:56;8.40;4.50
820;DHT22;392;48.838;2.322;2023-02-26T13:26:29;9.00;3.80
820;DHT22;392;48.838;2.322;2023-02-26T13:28:59;9.10;3.30
820;DHT22;392;48.838;2.322;2023-02-26T13:31:31;8.90;3.90
820;DHT22;392;48.838;2.322;2023-02-26T13:34:05;9.10;3.80
820;DHT22;392;48.838;2.322;2023-02-26T13:36:36;9.60;3.10
820;DHT22;392;48.838;2.322;2023-02-26T13:39:31;10.10;2.00
820;DHT22;392;48.838;2.322;2023-02-26T13:42:16;10.80;1.50
820;DHT22;392;48.838;2.322;2023-02-26T13:44:54;11.30;1.00
820;DHT22;392;48.838;2.322;2023-02-26T13:47:36;10.90;1.00
820;DHT22;392;48.838;2.322;2023-02-26T13:50:24;10.40;1.00
820;DHT22;392;48.838;2.322;2023-02-26T13:52:55;10.30;1.00
820;DHT22;392;48.838;2.322;2023-02-26T13:55:43;10.60;1.00
820;DHT22;392;48.838;2.322;2023-02-26T13:58:24;10.80;1.00
820;DHT22;392;48.838;2.322;2023-02-26T14:01:08;10.80;1.00
820;DHT22;392;48.838;2.322;2023-02-26T14:03:44;10.80;1.00
820;DHT22;392;48.838;2.322;2023-02-26T14:06:34;10.40;1.00
820;DHT22;392;48.838;2.322;2023-02-26T14:09:14;10.00;1.00
820;DHT22;392;48.838;2.322;2023-02-26T14:12:24;9.90;1.60
820;DHT22;392;48.838;2.322;2023-02-26T14:15:27;9.60;1.20
820;DHT22;392;48.838;2.322;2023-02-26T14:18:12;9.10;1.80
820;DHT22;392;48.838;2.322;2023-02-26T14:20:45;8.80;2.60
820;DHT22;392;48.838;2.322;2023-02-26T14:23:35;8.60;2.70
820;DHT22;392;48.838;2.322;2023-02-26T14:26:05;8.50;3.70
820;DHT22;392;48.838;2.322;2023-02-26T14:28:45;8.40;2.90
820;DHT22;392;48.838;2.322;2023-02-26T14:31:25;7.80;3.10
820;DHT22;392;48.838;2.322;2023-02-26T14:34:31;7.40;3.70
820;DHT22;392;48.838;2.322;2023-02-26T14:37:03;7.40;3.60
820;DHT22;392;48.838;2.322;2023-02-26T14:39:35;7.60;3.30
820;DHT22;392;48.838;2.322;2023-02-26T14:42:09;7.90;3.50
820;DHT22;392;48.838;2.322;2023-02-26T14:44:41;8.10;3.50
820;DHT22;392;48.838;2.322;2023-02-26T14:47:12;8.00;4.10
820;DHT22;392;48.838;2.322;2023-02-26T14:49:43;7.70;4.40
820;DHT22;392;48.838;2.322;2023-02-26T14:52:38;7.40;4.80
820;DHT22;392;48.838;2.322;2023-02-26T14:55:33;7.30;5.20
820;DHT22;392;48.838;2.322;2023-02-26T14:58:19;7.30;5.50
820;DHT22;392;48.838;2.322;2023-02-26T15:01:05;7.50;5.50
820;DHT22;392;48.838;2.322;2023-02-26T15:04:05;7.60;5.50
820;DHT22;392;48.838;2.322;2023-02-26T15:07:10;7.60;5.60
820;DHT22;392;48.838;2.322;2023-02-26T15:09:57;7.40;5.10
820;DHT22;392;48.838;2.322;2023-02-26T15:12:47;7.30;5.20
820;DHT22;392;48.838;2.322;2023-02-26T15:15:36;7.20;5.20
820;DHT22;392;48.838;2.322;2023-02-26T15:18:32;7.00;5.40
820;DHT22;392;48.838;2.322;2023-02-26T15:21:16;6.90;6.10
820;DHT22;392;48.838;2.322;2023-02-26T15:23:50;6.90;6.70
820;DHT22;392;48.838;2.322;2023-02-26T15:26:22;6.90;6.50
820;DHT22;392;48.838;2.322;2023-02-26T15:28:51;6.90;6.30
820;DHT22;392;48.838;2.322;2023-02-26T15:31:20;6.80;5.70
820;DHT22;392;48.838;2.322;2023-02-26T15:33:55;6.60;5.90
820;DHT22;392;48.838;2.322;2023-02-26T15:36:24;6.40;6.40
820;DHT22;392;48.838;2.322;2023-02-26T15:38:55;6.40;6.50
820;DHT22;392;48.838;2.322;2023-02-26T15:41:25;6.40;6.50
820;DHT22;392;48.838;2.322;2023-02-26T15:43:56;6.40;6.90
820;DHT22;392;48.838;2.322;2023-02-26T15:46:28;6.30;7.50
820;DHT22;392;48.838;2.322;2023-02-26T15:49:01;6.10;7.50
820;DHT22;392;48.838;2.322;2023-02-26T15:51:33;6.00;7.40
820;DHT22;392;48.838;2.322;2023-02-26T15:54:01;5.90;7.60
820;DHT22;392;48.838;2.322;2023-02-26T15:56:32;5.80;7.80
820;DHT22;392;48.838;2.322;2023-02-26T15:59:05;5.90;8.10
820;DHT22;392;48.838;2.322;2023-02-26T16:01:35;5.90;8.10
820;DHT22;392;48.838;2.322;2023-02-26T16:04:06;5.90;8.10
820;DHT22;392;48.838;2.322;2023-02-26T16:06:40;6.00;7.90
820;DHT22;392;48.838;2.322;2023-02-26T16:09:16;6.00;7.90
820;DHT22;392;48.838;2.322;2023-02-26T16:11:46;5.90;7.80
820;DHT22;392;48.838;2.322;2023-02-26T16:14:17;5.90;7.60
820;DHT22;392;48.838;2.322;2023-02-26T16:16:49;5.90;7.00
820;DHT22;392;48.838;2.322;2023-02-26T16:19:20;5.90;6.60
820;DHT22;392;48.838;2.322;2023-02-26T16:21:58;5.80;6.60
820;DHT22;392;48.838;2.322;2023-02-26T16:24:28;5.80;7.00
820;DHT22;392;48.838;2.322;2023-02-26T16:27:00;5.80;7.50
820;DHT22;392;48.838;2.322;2023-02-26T16:29:33;5.70;7.80
820;DHT22;392;48.838;2.322;2023-02-26T16:32:03;5.60;8.00
820;DHT22;392;48.838;2.322;2023-02-26T16:34:34;5.70;8.40
820;DHT22;392;48.838;2.322;2023-02-26T16:37:26;5.70;8.40
820;DHT22;392;48.838;2.322;2023-02-26T16:40:15;5.60;8.10
820;DHT22;392;48.838;2.322;2023-02-26T16:42:52;5.50;8.40
820;DHT22;392;48.838;2.322;2023-02-26T16:45:42;5.50;8.70
820;DHT22;392;48.838;2.322;2023-02-26T16:48:21;5.50;8.20
820;DHT22;392;48.838;2.322;2023-02-26T16:50:55;5.50;8.00
820;DHT22;392;48.838;2.322;2023-02-26T16:53:31;5.50;7.90
820;DHT22;392;48.838;2.322;2023-02-26T16:56:00;5.40;8.20
820;DHT22;392;48.838;2.322;2023-02-26T16:58:30;5.30;8.60
820;DHT22;392;48.838;2.322;2023-02-26T17:01:04;5.30;8.60
820;DHT22;392;48.838;2.322;2023-02-26T17:03:34;5.20;8.70
820;DHT22;392;48.838;2.322;2023-02-26T17:06:06;5.30;8.60
820;DHT22;392;48.838;2.322;2023-02-26T17:08:46;5.20;8.30
820;DHT22;392;48.838;2.322;2023-02-26T17:11:22;5.20;8.50
820;DHT22;392;48.838;2.322;2023-02-26T17:14:12;5.20;8.80
820;DHT22;392;48.838;2.322;2023-02-26T17:16:44;5.20;9.00
820;DHT22;392;48.838;2.322;2023-02-26T17:19:12;5.20;9.20
820;DHT22;392;48.838;2.322;2023-02-26T17:21:42;5.30;9.10
820;DHT22;392;48.838;2.322;2023-02-26T17:24:16;5.20;9.20
820;DHT22;392;48.838;2.322;2023-02-26T17:26:45;5.20;9.60
820;DHT22;392;48.838;2.322;2023-02-26T17:29:18;5.10;9.90
820;DHT22;392;48.838;2.322;2023-02-26T17:31:49;5.10;10.30
820;DHT22;392;48.838;2.322;2023-02-26T17:34:17;5.10;10.30
820;DHT22;392;48.838;2.322;2023-02-26T17:36:46;5.10;10.30
820;DHT22;392;48.838;2.322;2023-02-26T17:39:14;5.00;10.20
820;DHT22;392;48.838;2.322;2023-02-26T17:41:43;5.00;10.20
820;DHT22;392;48.838;2.322;2023-02-26T17:44:11;5.00;10.20
820;DHT22;392;48.838;2.322;2023-02-26T17:46:38;4.90;10.20
820;DHT22;392;48.838;2.322;2023-02-26T17:49:05;4.90;10.50
820;DHT22;392;48.838;2.322;2023-02-26T17:51:33;4.90;11.30
820;DHT22;392;48.838;2.322;2023-02-26T17:54:01;4.90;10.30